Time;durP1;ratioP1;P1;durP2;ratioP2;P2;SDS_P1;SDS_P2;PMS_P1;PMS_P2;Temp;Humidity;BMP_temperature;BMP_pressure;BME280_temperature;BME280_humidity;BME280_pressure;Samples;Min_cycle;Max_cycle;Signal;HPM_P1;HPM_P2
2021/07/14 00:00:42;;;;;;;;;;;15.60;99.90;;;;;;4968512;28;19991;-55
2021/07/14 00:03:09;;;;;;;;;;;15.60;99.90;;;;;;4968331;28;19990;-55
2021/07/14 00:05:34;;;;;;;;;;;15.70;99.90;;;;;;4968542;28;19990;-56
2021/07/14 00:08:00;;;;;;;;;;;15.60;99.90;;;;;;4968558;28;20007;-56
2021/07/14 00:10:30;;;;;;;;;;;15.50;99.90;;;;;;4968375;28;20458;-55
2021/07/14 00:13:06;;;;;;;;;;;15.40;99.90;;;;;;4968606;28;19998;-56
2021/07/14 00:23:28;;;;;;;;;;;15.20;99.90;;;;;;4968692;28;20381;-56
2021/07/14 00:25:54;;;;;;;;;;;15.20;99.90;;;;;;4967633;28;20509;-56
2021/07/14 00:28:21;;;;;;;;;;;15.20;99.90;;;;;;4968189;28;20098;-56
2021/07/14 00:30:52;;;;;;;;;;;15.30;99.90;;;;;;4968447;28;19991;-56
2021/07/14 00:33:18;;;;;;;;;;;15.20;99.90;;;;;;4968379;28;20038;-55
2021/07/14 00:35:44;;;;;;;;;;;15.20;99.90;;;;;;4968025;28;20045;-53
2021/07/14 00:38:10;;;;;;;;;;;15.20;99.90;;;;;;4966310;28;20425;-56
2021/07/14 00:40:36;;;;;;;;;;;15.10;99.90;;;;;;4967917;28;19988;-53
2021/07/14 00:43:03;;;;;;;;;;;15.20;99.90;;;;;;4967290;28;19988;-52
2021/07/14 00:45:29;;;;;;;;;;;15.20;99.90;;;;;;4967886;28;19990;-56
2021/07/14 00:47:57;;;;;;;;;;;15.20;99.90;;;;;;4967859;28;20007;-53
2021/07/14 00:50:23;;;;;;;;;;;15.20;99.90;;;;;;4967841;28;19987;-55
2021/07/14 00:52:49;;;;;;;;;;;15.20;99.90;;;;;;4968405;28;20098;-56
2021/07/14 00:55:14;;;;;;;;;;;15.10;99.90;;;;;;4967203;28;19987;-54
2021/07/14 00:57:40;;;;;;;;;;;15.10;99.90;;;;;;4967612;28;19987;-56
2021/07/14 01:00:07;;;;;;;;;;;15.00;99.90;;;;;;4967399;28;19991;-55
2021/07/14 01:02:33;;;;;;;;;;;15.00;99.90;;;;;;4967749;28;19987;-56
2021/07/14 01:05:02;;;;;;;;;;;15.00;99.90;;;;;;4967162;28;19995;-55
2021/07/14 01:07:36;;;;;;;;;;;14.90;99.90;;;;;;4967441;28;20010;-55
2021/07/14 01:10:08;;;;;;;;;;;15.00;99.90;;;;;;4966859;28;20466;-55
2021/07/14 01:12:34;;;;;;;;;;;15.00;99.90;;;;;;4967346;28;20469;-56
2021/07/14 01:15:12;;;;;;;;;;;15.00;99.90;;;;;;4967179;28;19994;-55
2021/07/14 01:17:44;;;;;;;;;;;15.10;99.90;;;;;;4982173;28;20449;-56
2021/07/14 01:20:16;;;;;;;;;;;15.00;99.90;;;;;;4967260;28;20054;-53
2021/07/14 01:22:42;;;;;;;;;;;15.00;99.90;;;;;;4967239;28;20078;-54
2021/07/14 01:25:17;;;;;;;;;;;15.00;99.90;;;;;;4966491;28;20103;-55
2021/07/14 01:27:43;;;;;;;;;;;14.90;99.90;;;;;;4966909;28;20054;-55
2021/07/14 01:30:11;;;;;;;;;;;14.90;99.90;;;;;;4967145;28;19990;-56
2021/07/14 01:32:38;;;;;;;;;;;14.90;99.90;;;;;;4967069;28;19983;-56
2021/07/14 01:35:10;;;;;;;;;;;14.90;99.90;;;;;;4966911;28;20477;-56
2021/07/14 01:37:35;;;;;;;;;;;14.90;99.90;;;;;;4967054;28;19995;-56
2021/07/14 01:40:03;;;;;;;;;;;15.00;99.90;;;;;;4966726;28;20050;-56
2021/07/14 01:42:29;;;;;;;;;;;15.10;99.90;;;;;;4967150;28;20038;-56
2021/07/14 01:44:57;;;;;;;;;;;15.00;99.90;;;;;;4966820;28;19991;-56
2021/07/14 01:47:23;;;;;;;;;;;15.10;99.90;;;;;;4966788;28;20378;-55
2021/07/14 01:49:51;;;;;;;;;;;15.20;99.90;;;;;;4967704;28;19989;-56
2021/07/14 01:52:19;;;;;;;;;;;15.10;99.90;;;;;;4967300;28;20422;-55
2021/07/14 01:54:47;;;;;;;;;;;15.10;99.90;;;;;;4966487;28;20009;-55
2021/07/14 01:57:14;;;;;;;;;;;15.00;99.90;;;;;;4968996;28;20497;-54
2021/07/14 01:59:41;;;;;;;;;;;14.90;99.90;;;;;;4970861;28;19991;-56
2021/07/14 02:02:07;;;;;;;;;;;14.80;99.90;;;;;;4970506;28;19983;-54
2021/07/14 02:04:35;;;;;;;;;;;14.80;99.90;;;;;;4970698;28;20022;-56
2021/07/14 02:07:11;;;;;;;;;;;14.90;99.90;;;;;;4970165;28;20007;-56
2021/07/14 02:09:38;;;;;;;;;;;15.00;99.90;;;;;;4970581;28;19987;-55
2021/07/14 02:12:14;;;;;;;;;;;15.10;99.90;;;;;;4970638;28;20017;-54
2021/07/14 02:14:48;;;;;;;;;;;15.20;99.90;;;;;;4970364;28;20544;-55
2021/07/14 02:17:18;;;;;;;;;;;15.30;99.90;;;;;;4970230;28;19987;-56
2021/07/14 02:19:57;;;;;;;;;;;15.40;99.90;;;;;;4970624;28;19993;-56
2021/07/14 02:22:22;;;;;;;;;;;15.40;99.90;;;;;;4970557;28;20373;-55
2021/07/14 02:24:48;;;;;;;;;;;15.40;99.90;;;;;;4970402;28;19984;-56
2021/07/14 02:27:16;;;;;;;;;;;15.40;99.90;;;;;;4969917;28;20011;-55
2021/07/14 02:29:42;;;;;;;;;;;15.50;99.90;;;;;;4970523;28;20537;-56
2021/07/14 02:32:08;;;;;;;;;;;15.40;99.90;;;;;;4970325;28;20085;-56
2021/07/14 02:34:34;;;;;;;;;;;15.50;99.90;;;;;;4970399;28;20354;-56
2021/07/14 02:37:02;;;;;;;;;;;15.50;99.90;;;;;;4970075;28;20081;-56
2021/07/14 02:39:28;;;;;;;;;;;15.40;99.90;;;;;;4970158;28;19984;-56
2021/07/14 02:41:57;;;;;;;;;;;15.40;99.90;;;;;;4970041;28;20413;-55
2021/07/14 02:44:25;;;;;;;;;;;15.30;99.90;;;;;;4969959;28;20564;-55
2021/07/14 02:46:51;;;;;;;;;;;15.30;99.90;;;;;;4970423;28;20011;-56
2021/07/14 02:49:19;;;;;;;;;;;15.40;99.90;;;;;;4970118;28;19994;-55
2021/07/14 02:51:47;;;;;;;;;;;15.30;99.90;;;;;;4969925;28;20031;-55
2021/07/14 02:54:20;;;;;;;;;;;15.30;99.90;;;;;;4969293;28;20061;-54
2021/07/14 02:56:48;;;;;;;;;;;15.40;99.90;;;;;;4970008;28;20022;-56
2021/07/14 02:59:13;;;;;;;;;;;15.40;99.90;;;;;;4969616;28;19992;-56
2021/07/14 03:01:41;;;;;;;;;;;15.30;99.90;;;;;;4969886;28;19990;-56
2021/07/14 03:04:09;;;;;;;;;;;15.30;99.90;;;;;;4969355;28;19987;-56
2021/07/14 03:06:35;;;;;;;;;;;15.30;99.90;;;;;;4969625;28;20009;-56
2021/07/14 03:09:04;;;;;;;;;;;15.30;99.90;;;;;;4967834;28;20376;-54
2021/07/14 03:11:32;;;;;;;;;;;15.30;99.90;;;;;;4969551;28;19983;-54
2021/07/14 03:13:58;;;;;;;;;;;15.30;99.90;;;;;;4969006;28;20462;-54
2021/07/14 03:16:24;;;;;;;;;;;15.30;99.90;;;;;;4969769;28;19990;-54
2021/07/14 03:18:51;;;;;;;;;;;15.30;99.90;;;;;;4970007;28;20421;-55
2021/07/14 03:21:17;;;;;;;;;;;15.20;99.90;;;;;;4969654;28;20411;-56
2021/07/14 03:23:43;;;;;;;;;;;15.20;99.90;;;;;;4968941;28;19991;-55
2021/07/14 03:26:08;;;;;;;;;;;15.10;99.90;;;;;;4968897;28;20027;-55
2021/07/14 03:28:36;;;;;;;;;;;15.20;99.90;;;;;;4969181;28;20544;-56
2021/07/14 03:31:03;;;;;;;;;;;15.20;99.90;;;;;;4969004;28;19994;-55
2021/07/14 03:33:29;;;;;;;;;;;15.20;99.90;;;;;;4969196;28;19987;-56
2021/07/14 03:35:57;;;;;;;;;;;15.20;99.90;;;;;;4969401;28;20320;-55
2021/07/14 03:38:23;;;;;;;;;;;15.20;99.90;;;;;;4969076;28;20125;-55
2021/07/14 03:40:50;;;;;;;;;;;15.20;99.90;;;;;;4969698;28;20423;-55
2021/07/14 03:43:15;;;;;;;;;;;15.20;99.90;;;;;;4968705;28;19995;-56
2021/07/14 03:45:41;;;;;;;;;;;15.20;99.90;;;;;;4969160;28;20443;-56
2021/07/14 03:48:10;;;;;;;;;;;15.20;99.90;;;;;;4968658;28;20011;-55
2021/07/14 03:50:38;;;;;;;;;;;15.30;99.90;;;;;;4969107;28;19991;-55
2021/07/14 03:53:03;;;;;;;;;;;15.40;99.90;;;;;;4967997;28;20481;-56
2021/07/14 03:55:29;;;;;;;;;;;15.40;99.90;;;;;;4968912;28;20030;-56
2021/07/14 03:57:55;;;;;;;;;;;15.20;99.90;;;;;;4969161;28;19987;-55
2021/07/14 04:00:21;;;;;;;;;;;15.30;99.90;;;;;;4969312;28;20010;-55
2021/07/14 04:02:48;;;;;;;;;;;15.30;99.90;;;;;;4968772;28;19990;-56
2021/07/14 04:05:14;;;;;;;;;;;15.30;99.90;;;;;;4968185;28;20078;-56
2021/07/14 04:07:43;;;;;;;;;;;15.30;99.90;;;;;;4968243;28;20400;-56
2021/07/14 04:10:09;;;;;;;;;;;15.30;99.90;;;;;;4968318;28;19991;-56
2021/07/14 04:12:36;;;;;;;;;;;15.30;99.90;;;;;;4968619;28;20512;-55
2021/07/14 04:15:02;;;;;;;;;;;15.30;99.90;;;;;;4968328;28;20507;-56
2021/07/14 04:17:28;;;;;;;;;;;15.30;99.90;;;;;;4968472;28;19987;-55
2021/07/14 04:19:54;;;;;;;;;;;15.30;99.90;;;;;;4967931;28;19983;-56
2021/07/14 04:22:19;;;;;;;;;;;15.40;99.90;;;;;;4968191;28;19984;-55
2021/07/14 04:24:46;;;;;;;;;;;15.50;99.90;;;;;;4982789;28;20272;-55
2021/07/14 04:27:11;;;;;;;;;;;15.50;99.90;;;;;;4968092;28;20053;-56
2021/07/14 04:29:37;;;;;;;;;;;15.50;99.90;;;;;;4968243;28;20023;-56
2021/07/14 04:32:03;;;;;;;;;;;15.50;99.90;;;;;;4982988;28;20087;-56
2021/07/14 04:34:28;;;;;;;;;;;15.50;99.90;;;;;;4968105;28;19991;-55
2021/07/14 04:36:54;;;;;;;;;;;15.60;99.90;;;;;;4968150;28;19987;-56
2021/07/14 04:39:20;;;;;;;;;;;15.60;99.90;;;;;;4968352;28;19999;-54
2021/07/14 04:41:45;;;;;;;;;;;15.70;99.90;;;;;;4968211;28;20091;-55
2021/07/14 04:44:11;;;;;;;;;;;15.60;99.90;;;;;;4967629;28;20446;-55
2021/07/14 04:46:38;;;;;;;;;;;15.60;99.90;;;;;;4967753;28;20011;-55
2021/07/14 04:49:03;;;;;;;;;;;15.70;99.90;;;;;;4967517;28;20078;-55
2021/07/14 04:51:29;;;;;;;;;;;15.70;99.90;;;;;;4981339;28;20137;-56
2021/07/14 04:53:55;;;;;;;;;;;15.70;99.90;;;;;;4987034;28;20009;-56
2021/07/14 04:56:21;;;;;;;;;;;15.70;99.90;;;;;;4986292;28;19996;-56
2021/07/14 04:58:47;;;;;;;;;;;15.80;99.90;;;;;;4986470;28;19983;-55
2021/07/14 05:01:13;;;;;;;;;;;15.80;99.90;;;;;;4987151;28;20085;-56
2021/07/14 05:03:40;;;;;;;;;;;15.80;99.90;;;;;;4986505;28;19983;-56
2021/07/14 05:06:05;;;;;;;;;;;15.80;99.90;;;;;;4986520;28;20001;-56
2021/07/14 05:08:31;;;;;;;;;;;15.80;99.90;;;;;;4987276;28;20007;-56
2021/07/14 05:10:56;;;;;;;;;;;15.80;99.90;;;;;;4987504;28;20481;-54
2021/07/14 05:13:22;;;;;;;;;;;15.80;99.90;;;;;;4986563;28;20053;-55
2021/07/14 05:15:48;;;;;;;;;;;15.80;99.90;;;;;;4986651;28;20026;-56
2021/07/14 05:18:14;;;;;;;;;;;15.90;99.90;;;;;;4986062;28;20018;-53
2021/07/14 05:20:40;;;;;;;;;;;15.90;99.90;;;;;;4986498;28;20025;-55
2021/07/14 05:23:07;;;;;;;;;;;15.90;99.90;;;;;;4986279;28;20409;-56
2021/07/14 05:25:33;;;;;;;;;;;16.00;99.90;;;;;;4985911;28;19983;-53
2021/07/14 05:27:59;;;;;;;;;;;16.00;99.90;;;;;;4986708;28;20352;-54
2021/07/14 05:30:24;;;;;;;;;;;16.00;99.90;;;;;;4986002;28;20014;-56
2021/07/14 05:32:50;;;;;;;;;;;16.00;99.90;;;;;;4985834;28;20088;-55
2021/07/14 05:35:15;;;;;;;;;;;16.00;99.90;;;;;;4985776;28;20535;-55
2021/07/14 05:37:41;;;;;;;;;;;16.10;99.90;;;;;;4986445;28;20387;-56
2021/07/14 05:40:07;;;;;;;;;;;16.10;99.90;;;;;;4986170;28;19990;-56
2021/07/14 05:42:33;;;;;;;;;;;16.10;99.90;;;;;;4986343;28;20009;-55
2021/07/14 05:44:59;;;;;;;;;;;16.10;99.90;;;;;;4986794;28;20073;-56
2021/07/14 05:47:24;;;;;;;;;;;16.00;99.90;;;;;;4986320;28;20101;-56
2021/07/14 05:49:50;;;;;;;;;;;16.00;99.90;;;;;;4986131;28;20458;-56
2021/07/14 05:52:16;;;;;;;;;;;16.00;99.90;;;;;;4985961;28;20045;-55
2021/07/14 05:54:42;;;;;;;;;;;16.00;99.90;;;;;;4986062;28;20382;-55
2021/07/14 05:57:08;;;;;;;;;;;16.00;99.90;;;;;;4985919;28;20350;-56
2021/07/14 05:59:34;;;;;;;;;;;15.90;99.90;;;;;;4986377;28;20041;-58
2021/07/14 06:02:00;;;;;;;;;;;15.90;99.90;;;;;;4986275;28;20029;-57
2021/07/14 06:04:26;;;;;;;;;;;15.90;99.90;;;;;;4986097;28;20076;-56
2021/07/14 06:06:53;;;;;;;;;;;15.90;99.90;;;;;;4985476;28;20092;-56
2021/07/14 06:09:19;;;;;;;;;;;15.90;99.90;;;;;;4985857;28;19990;-56
2021/07/14 06:11:45;;;;;;;;;;;15.70;99.90;;;;;;4986234;28;19986;-57
2021/07/14 06:14:11;;;;;;;;;;;15.40;99.90;;;;;;4985632;28;20483;-56
2021/07/14 06:16:37;;;;;;;;;;;15.30;99.90;;;;;;4985619;28;19983;-57
2021/07/14 06:19:03;;;;;;;;;;;15.10;99.90;;;;;;4985529;28;19987;-57
2021/07/14 06:21:29;;;;;;;;;;;15.00;99.90;;;;;;4986444;28;20478;-57
2021/07/14 06:23:54;;;;;;;;;;;14.90;99.90;;;;;;4985627;28;20159;-56
2021/07/14 06:26:20;;;;;;;;;;;14.80;99.90;;;;;;4985200;28;20477;-56
2021/07/14 06:28:46;;;;;;;;;;;14.70;99.90;;;;;;4987045;28;20354;-57
2021/07/14 06:31:12;;;;;;;;;;;14.70;99.90;;;;;;4986939;28;20049;-57
2021/07/14 06:33:40;;;;;;;;;;;14.60;99.90;;;;;;4971853;28;19987;-58
2021/07/14 06:36:07;;;;;;;;;;;14.50;99.90;;;;;;4965587;28;19991;-57
2021/07/14 06:38:33;;;;;;;;;;;14.30;99.90;;;;;;4967714;28;19983;-58
2021/07/14 06:40:59;;;;;;;;;;;14.30;99.90;;;;;;4967719;28;20488;-57
2021/07/14 06:43:41;;;;;;;;;;;14.40;99.90;;;;;;4969841;28;19988;-57
2021/07/14 06:46:10;;;;;;;;;;;14.30;99.90;;;;;;4990450;28;19994;-58
2021/07/14 06:48:36;;;;;;;;;;;14.30;99.90;;;;;;4989541;28;20097;-57
2021/07/14 06:51:02;;;;;;;;;;;14.30;99.90;;;;;;4990052;28;19986;-57
2021/07/14 06:53:27;;;;;;;;;;;14.40;99.90;;;;;;4990324;28;20483;-58
2021/07/14 06:55:53;;;;;;;;;;;14.30;99.90;;;;;;4990684;28;19997;-57
2021/07/14 06:58:18;;;;;;;;;;;14.40;99.90;;;;;;4990265;28;20702;-57
2021/07/14 07:00:44;;;;;;;;;;;14.40;99.90;;;;;;4991022;28;19983;-57
2021/07/14 07:03:10;;;;;;;;;;;14.50;99.90;;;;;;4989962;28;19998;-57
2021/07/14 07:05:36;;;;;;;;;;;14.40;99.90;;;;;;4990289;28;20148;-58
2021/07/14 07:08:02;;;;;;;;;;;14.40;99.90;;;;;;4990090;28;20432;-58
2021/07/14 07:10:28;;;;;;;;;;;14.50;99.90;;;;;;4990484;28;20069;-57
2021/07/14 07:12:54;;;;;;;;;;;14.50;99.90;;;;;;4989826;28;19987;-57
2021/07/14 07:15:20;;;;;;;;;;;14.60;99.90;;;;;;4989988;28;19993;-58
2021/07/14 07:17:46;;;;;;;;;;;14.70;99.90;;;;;;4989345;28;19987;-58
2021/07/14 07:20:14;;;;;;;;;;;14.70;99.90;;;;;;4989063;28;19993;-58
2021/07/14 07:22:40;;;;;;;;;;;14.80;99.90;;;;;;4988803;28;19997;-58
2021/07/14 07:25:06;;;;;;;;;;;14.80;99.90;;;;;;4988011;28;19998;-58
2021/07/14 07:27:35;;;;;;;;;;;14.80;99.90;;;;;;4988798;28;20006;-57
2021/07/14 07:30:04;;;;;;;;;;;14.90;99.90;;;;;;4987698;28;19987;-58
2021/07/14 07:32:29;;;;;;;;;;;14.80;99.90;;;;;;4988114;28;20082;-58
2021/07/14 07:34:55;;;;;;;;;;;14.90;99.90;;;;;;4985328;28;20151;-57
2021/07/14 07:37:21;;;;;;;;;;;15.10;99.90;;;;;;4987389;28;20026;-57
2021/07/14 07:39:48;;;;;;;;;;;15.10;99.90;;;;;;4986059;28;19993;-57
2021/07/14 07:42:14;;;;;;;;;;;15.20;99.90;;;;;;4989954;28;20078;-58
2021/07/14 07:44:39;;;;;;;;;;;15.20;99.90;;;;;;4987325;28;20466;-58
2021/07/14 07:47:06;;;;;;;;;;;15.20;99.90;;;;;;4988158;28;20018;-58
2021/07/14 07:49:31;;;;;;;;;;;15.20;99.90;;;;;;4969971;28;20030;-58
2021/07/14 07:51:57;;;;;;;;;;;15.00;99.90;;;;;;4981584;28;19987;-58
2021/07/14 07:54:24;;;;;;;;;;;14.90;99.90;;;;;;4988033;28;19995;-58
2021/07/14 07:56:50;;;;;;;;;;;15.00;99.90;;;;;;4988315;28;19987;-59
2021/07/14 07:59:16;;;;;;;;;;;15.10;99.90;;;;;;4988478;28;19998;-59
2021/07/14 08:01:42;;;;;;;;;;;15.10;99.90;;;;;;4989481;28;19986;-57
2021/07/14 08:04:08;;;;;;;;;;;15.00;99.90;;;;;;4988541;28;19987;-58
2021/07/14 08:06:34;;;;;;;;;;;15.10;99.90;;;;;;4988670;28;20037;-59
2021/07/14 08:08:59;;;;;;;;;;;14.80;99.90;;;;;;4988560;28;19986;-59
2021/07/14 08:11:25;;;;;;;;;;;15.00;99.90;;;;;;4987943;28;19991;-58
2021/07/14 08:13:54;;;;;;;;;;;14.90;99.90;;;;;;4987623;28;20230;-57
2021/07/14 08:16:20;;;;;;;;;;;14.90;99.90;;;;;;4988488;28;19990;-57
2021/07/14 08:18:46;;;;;;;;;;;15.00;99.90;;;;;;4988749;28;19987;-58
2021/07/14 08:21:11;;;;;;;;;;;14.90;99.90;;;;;;4988445;28;19997;-58
2021/07/14 08:23:38;;;;;;;;;;;14.90;99.90;;;;;;4987727;28;19994;-58
2021/07/14 08:26:04;;;;;;;;;;;14.90;99.90;;;;;;4988163;28;19990;-57
2021/07/14 08:28:30;;;;;;;;;;;14.90;99.90;;;;;;4987469;28;20014;-59
2021/07/14 08:30:55;;;;;;;;;;;15.00;99.90;;;;;;4988287;28;19991;-57
2021/07/14 08:33:21;;;;;;;;;;;15.00;99.90;;;;;;4987662;28;20369;-58
2021/07/14 08:35:48;;;;;;;;;;;15.00;99.90;;;;;;4987679;28;19986;-58
2021/07/14 08:38:13;;;;;;;;;;;15.10;99.90;;;;;;4988178;28;19987;-58
2021/07/14 08:40:39;;;;;;;;;;;15.00;99.90;;;;;;4988082;28;19987;-58
2021/07/14 08:43:05;;;;;;;;;;;15.00;99.90;;;;;;4987555;28;19990;-57
2021/07/14 08:45:31;;;;;;;;;;;15.10;99.90;;;;;;4985639;28;20032;-58
2021/07/14 08:47:56;;;;;;;;;;;15.00;99.90;;;;;;5005925;28;20010;-57
2021/07/14 08:50:22;;;;;;;;;;;15.10;99.90;;;;;;5001604;28;19991;-57
2021/07/14 08:52:49;;;;;;;;;;;15.00;99.90;;;;;;4987344;28;20012;-57
2021/07/14 08:55:16;;;;;;;;;;;15.00;99.90;;;;;;4987710;28;19987;-57
2021/07/14 08:57:43;;;;;;;;;;;15.00;99.90;;;;;;4977348;28;19994;-58
2021/07/14 09:00:10;;;;;;;;;;;15.00;99.90;;;;;;4991766;28;20389;-57
2021/07/14 09:02:37;;;;;;;;;;;15.10;99.90;;;;;;4967828;28;19987;-57
2021/07/14 09:05:03;;;;;;;;;;;15.00;99.90;;;;;;4985112;28;20445;-59
2021/07/14 09:07:28;;;;;;;;;;;14.80;99.90;;;;;;4987221;28;20054;-58
2021/07/14 09:09:54;;;;;;;;;;;14.90;99.90;;;;;;4987583;28;20146;-58
2021/07/14 09:12:33;;;;;;;;;;;15.00;99.90;;;;;;4986902;28;20419;-58
2021/07/14 09:15:03;;;;;;;;;;;15.00;99.90;;;;;;4986949;28;20475;-58
2021/07/14 09:17:28;;;;;;;;;;;15.00;99.90;;;;;;4988022;28;20010;-58
2021/07/14 09:20:20;;;;;;;;;;;15.00;99.90;;;;;;4987699;28;19987;-58
2021/07/14 09:22:46;;;;;;;;;;;15.10;99.90;;;;;;4985140;28;20469;-58
2021/07/14 09:25:16;;;;;;;;;;;15.20;99.90;;;;;;4985948;28;19983;-58
2021/07/14 09:27:54;;;;;;;;;;;15.20;99.90;;;;;;4986814;28;20499;-58
2021/07/14 09:30:21;;;;;;;;;;;15.30;99.90;;;;;;4986868;28;20010;-58
2021/07/14 09:32:59;;;;;;;;;;;15.40;99.90;;;;;;4987369;28;20461;-59
2021/07/14 09:35:41;;;;;;;;;;;15.60;99.90;;;;;;4987259;28;20001;-58
2021/07/14 09:38:07;;;;;;;;;;;15.70;99.90;;;;;;4985538;28;19997;-58
2021/07/14 09:40:33;;;;;;;;;;;15.60;99.90;;;;;;4984701;28;19990;-58
2021/07/14 09:43:00;;;;;;;;;;;15.60;99.90;;;;;;4987586;28;19987;-58
2021/07/14 09:45:35;;;;;;;;;;;15.60;99.90;;;;;;4986348;28;19990;-57
2021/07/14 09:48:01;;;;;;;;;;;15.50;99.90;;;;;;4985124;28;20053;-59
2021/07/14 09:50:34;;;;;;;;;;;15.60;99.90;;;;;;4987955;28;19986;-59
2021/07/14 09:53:03;;;;;;;;;;;15.60;99.90;;;;;;4986358;28;20544;-59
2021/07/14 09:55:32;;;;;;;;;;;15.50;99.90;;;;;;4986673;28;20018;-58
2021/07/14 09:58:07;;;;;;;;;;;15.60;99.90;;;;;;4987663;28;20265;-59
2021/07/14 10:00:43;;;;;;;;;;;15.70;99.90;;;;;;4986720;28;19994;-59
2021/07/14 10:03:09;;;;;;;;;;;15.50;99.90;;;;;;4986749;28;20033;-59
2021/07/14 10:05:36;;;;;;;;;;;15.60;99.90;;;;;;4986519;28;19995;-59
2021/07/14 10:08:20;;;;;;;;;;;15.60;99.90;;;;;;4986153;28;20010;-59
2021/07/14 10:10:48;;;;;;;;;;;15.50;99.90;;;;;;4986539;28;19995;-59
2021/07/14 10:13:14;;;;;;;;;;;15.60;99.90;;;;;;4985863;28;19999;-59
2021/07/14 10:15:59;;;;;;;;;;;15.40;99.90;;;;;;4986615;28;20555;-59
2021/07/14 10:18:26;;;;;;;;;;;15.50;99.90;;;;;;4988607;28;20372;-59
2021/07/14 10:20:51;;;;;;;;;;;15.60;99.90;;;;;;4977507;28;20001;-58
2021/07/14 10:23:18;;;;;;;;;;;15.50;99.90;;;;;;4971122;28;20370;-58
2021/07/14 10:25:44;;;;;;;;;;;15.60;99.90;;;;;;4970829;28;20038;-58
2021/07/14 10:28:12;;;;;;;;;;;15.60;99.90;;;;;;4979774;28;20057;-59
2021/07/14 10:30:39;;;;;;;;;;;15.70;99.90;;;;;;4990912;28;19983;-59
2021/07/14 10:33:10;;;;;;;;;;;15.60;99.90;;;;;;5004876;28;20436;-59
2021/07/14 10:35:38;;;;;;;;;;;15.60;99.90;;;;;;4990360;28;20069;-59
2021/07/14 10:38:04;;;;;;;;;;;15.70;99.90;;;;;;4990291;28;20408;-59
2021/07/14 10:40:31;;;;;;;;;;;15.70;99.90;;;;;;4990378;28;20126;-59
2021/07/14 10:42:56;;;;;;;;;;;15.70;99.90;;;;;;4991011;28;20074;-59
2021/07/14 10:45:22;;;;;;;;;;;15.60;99.90;;;;;;4989530;28;20093;-59
2021/07/14 10:47:50;;;;;;;;;;;15.50;99.90;;;;;;4988266;28;20246;-58
2021/07/14 10:50:16;;;;;;;;;;;15.60;99.90;;;;;;4989479;28;19990;-59
2021/07/14 10:52:42;;;;;;;;;;;15.50;99.90;;;;;;5005270;28;20505;-56
2021/07/14 10:55:09;;;;;;;;;;;15.40;99.90;;;;;;4989885;28;19990;-57
2021/07/14 10:57:37;;;;;;;;;;;15.40;99.90;;;;;;4990254;28;20126;-58
2021/07/14 11:00:05;;;;;;;;;;;15.50;99.90;;;;;;4989727;28;20129;-58
2021/07/14 11:02:39;;;;;;;;;;;15.40;99.90;;;;;;5005569;28;20380;-59
2021/07/14 11:05:05;;;;;;;;;;;15.50;99.90;;;;;;4989629;28;19991;-59
2021/07/14 11:07:35;;;;;;;;;;;15.60;99.90;;;;;;4989988;28;20411;-59
2021/07/14 11:10:20;;;;;;;;;;;15.70;99.90;;;;;;4989780;28;19983;-59
2021/07/14 11:12:46;;;;;;;;;;;15.70;99.90;;;;;;4990001;28;20001;-57
2021/07/14 11:15:25;;;;;;;;;;;15.80;99.90;;;;;;4989983;28;19987;-57
2021/07/14 11:17:51;;;;;;;;;;;15.80;99.90;;;;;;4989630;28;20030;-58
2021/07/14 11:20:16;;;;;;;;;;;15.80;99.90;;;;;;4989630;28;20060;-58
2021/07/14 11:22:44;;;;;;;;;;;15.80;99.90;;;;;;4989679;28;19994;-58
2021/07/14 11:25:19;;;;;;;;;;;15.70;99.90;;;;;;4989147;28;20322;-57
2021/07/14 11:27:46;;;;;;;;;;;15.80;99.90;;;;;;4989447;28;20575;-59
2021/07/14 11:30:12;;;;;;;;;;;15.80;99.90;;;;;;4989622;28;20070;-59
2021/07/14 11:32:40;;;;;;;;;;;15.90;99.90;;;;;;4990913;28;20079;-59
2021/07/14 11:35:06;;;;;;;;;;;15.80;99.90;;;;;;4989663;28;20492;-59
2021/07/14 11:37:33;;;;;;;;;;;15.90;99.90;;;;;;4990933;28;19995;-58
2021/07/14 11:40:19;;;;;;;;;;;15.90;99.90;;;;;;4990144;28;20518;-59
2021/07/14 11:42:47;;;;;;;;;;;15.90;99.90;;;;;;4969671;28;20468;-58
2021/07/14 11:45:14;;;;;;;;;;;16.00;99.90;;;;;;4989716;28;20053;-58
2021/07/14 11:47:39;;;;;;;;;;;16.10;99.90;;;;;;4989524;28;20567;-58
2021/07/14 11:50:06;;;;;;;;;;;16.20;99.90;;;;;;4989283;28;20003;-58
2021/07/14 11:52:45;;;;;;;;;;;16.20;99.90;;;;;;4990374;28;20424;-59
2021/07/14 11:55:23;;;;;;;;;;;16.10;99.90;;;;;;4990211;28;19994;-58
2021/07/14 11:57:49;;;;;;;;;;;16.10;99.90;;;;;;4990433;28;20045;-58
2021/07/14 12:00:15;;;;;;;;;;;16.10;99.90;;;;;;4989916;28;20425;-58
2021/07/14 12:02:57;;;;;;;;;;;16.20;99.90;;;;;;4990226;28;19987;-58
2021/07/14 12:05:28;;;;;;;;;;;16.10;99.90;;;;;;4989824;28;20087;-59
2021/07/14 12:08:06;;;;;;;;;;;16.10;99.90;;;;;;4990481;28;20011;-59
2021/07/14 12:10:32;;;;;;;;;;;16.20;99.90;;;;;;4989749;28;20001;-59
2021/07/14 12:12:58;;;;;;;;;;;16.20;99.90;;;;;;4990932;28;20377;-58
2021/07/14 12:15:24;;;;;;;;;;;16.30;99.90;;;;;;4990574;28;19991;-58
2021/07/14 12:17:49;;;;;;;;;;;16.20;99.90;;;;;;4989467;28;20033;-58
2021/07/14 12:20:16;;;;;;;;;;;16.10;99.90;;;;;;4995516;28;19999;-59
2021/07/14 12:22:41;;;;;;;;;;;16.10;99.90;;;;;;4989053;28;20311;-59
2021/07/14 12:25:12;;;;;;;;;;;16.00;99.90;;;;;;4976672;28;20145;-59
2021/07/14 12:27:39;;;;;;;;;;;16.00;99.90;;;;;;4970239;28;20556;-58
2021/07/14 12:30:16;;;;;;;;;;;16.10;99.90;;;;;;4987875;28;19991;-58
2021/07/14 12:32:43;;;;;;;;;;;16.00;99.90;;;;;;4988823;28;20055;-59
2021/07/14 12:35:16;;;;;;;;;;;16.00;99.90;;;;;;4987964;28;19991;-59
2021/07/14 12:37:44;;;;;;;;;;;16.00;99.90;;;;;;4988453;28;20050;-58
2021/07/14 12:40:10;;;;;;;;;;;15.90;99.90;;;;;;4988058;28;19990;-58
2021/07/14 12:42:35;;;;;;;;;;;16.00;99.90;;;;;;4988535;28;20073;-57
2021/07/14 12:45:02;;;;;;;;;;;16.00;99.90;;;;;;4985923;28;20425;-58
2021/07/14 12:47:29;;;;;;;;;;;16.00;99.90;;;;;;4988885;28;20019;-58
2021/07/14 12:49:57;;;;;;;;;;;16.00;99.90;;;;;;4986201;28;19998;-58
2021/07/14 12:52:22;;;;;;;;;;;15.90;99.90;;;;;;4987726;28;19994;-58
2021/07/14 12:54:55;;;;;;;;;;;15.90;99.90;;;;;;4988036;28;20467;-58
2021/07/14 12:57:22;;;;;;;;;;;15.90;99.90;;;;;;4987413;28;19998;-58
2021/07/14 12:59:55;;;;;;;;;;;15.90;99.90;;;;;;4987525;28;19997;-58
2021/07/14 13:02:22;;;;;;;;;;;15.90;99.90;;;;;;4988342;28;20005;-58
2021/07/14 13:04:48;;;;;;;;;;;15.90;99.90;;;;;;4988243;28;19987;-60
2021/07/14 13:07:21;;;;;;;;;;;16.00;99.90;;;;;;4986748;28;20520;-60
2021/07/14 13:09:47;;;;;;;;;;;16.00;99.90;;;;;;4987463;28;20057;-60
2021/07/14 13:12:13;;;;;;;;;;;16.00;99.90;;;;;;4986599;28;19991;-60
2021/07/14 13:14:39;;;;;;;;;;;16.00;99.90;;;;;;4987059;28;19990;-60
2021/07/14 13:17:05;;;;;;;;;;;16.10;99.90;;;;;;4986073;28;20078;-60
2021/07/14 13:19:31;;;;;;;;;;;16.20;99.90;;;;;;4986621;28;19991;-60
2021/07/14 13:22:00;;;;;;;;;;;16.20;99.90;;;;;;4987539;28;19983;-60
2021/07/14 13:24:30;;;;;;;;;;;16.20;99.90;;;;;;4986996;28;19995;-60
2021/07/14 13:26:58;;;;;;;;;;;16.20;99.90;;;;;;4987133;28;20559;-60
2021/07/14 13:29:27;;;;;;;;;;;16.20;99.90;;;;;;4987305;28;20405;-60
2021/07/14 13:32:11;;;;;;;;;;;16.20;99.90;;;;;;4987107;28;20085;-60
2021/07/14 13:34:41;;;;;;;;;;;16.10;99.90;;;;;;4986391;28;19987;-60
2021/07/14 13:37:06;;;;;;;;;;;16.20;99.90;;;;;;4986054;28;20465;-60
2021/07/14 13:39:33;;;;;;;;;;;16.30;99.90;;;;;;4986858;28;19994;-60
2021/07/14 13:42:00;;;;;;;;;;;16.30;99.90;;;;;;4985851;28;20016;-61
2021/07/14 13:44:26;;;;;;;;;;;16.20;99.90;;;;;;4992173;28;19998;-60
2021/07/14 13:46:53;;;;;;;;;;;16.20;99.90;;;;;;4987840;28;20003;-60
2021/07/14 13:49:21;;;;;;;;;;;16.20;99.90;;;;;;4984869;28;19994;-60
2021/07/14 13:51:48;;;;;;;;;;;16.20;99.90;;;;;;4984303;28;19998;-60
2021/07/14 13:54:14;;;;;;;;;;;16.30;99.90;;;;;;4985313;28;19999;-59
2021/07/14 13:56:40;;;;;;;;;;;16.40;99.90;;;;;;4986704;28;19995;-59
2021/07/14 13:59:18;;;;;;;;;;;16.30;99.90;;;;;;4986383;28;20361;-60
2021/07/14 14:01:53;;;;;;;;;;;16.20;99.90;;;;;;4985960;28;19993;-59
2021/07/14 14:04:18;;;;;;;;;;;16.20;99.90;;;;;;4985981;28;19993;-60
2021/07/14 14:06:47;;;;;;;;;;;16.30;99.90;;;;;;4986352;28;20082;-60
2021/07/14 14:09:16;;;;;;;;;;;16.40;99.90;;;;;;4985724;28;20030;-59
2021/07/14 14:11:42;;;;;;;;;;;16.30;99.90;;;;;;4986481;28;19983;-59
2021/07/14 14:14:07;;;;;;;;;;;16.40;99.90;;;;;;4985252;28;20065;-60
2021/07/14 14:16:33;;;;;;;;;;;16.40;99.90;;;;;;4984695;28;19990;-57
2021/07/14 14:18:58;;;;;;;;;;;16.30;99.90;;;;;;4985766;28;19987;-59
2021/07/14 14:21:24;;;;;;;;;;;16.30;99.90;;;;;;4986975;28;20013;-57
2021/07/14 14:23:55;;;;;;;;;;;16.40;99.90;;;;;;4985419;28;20480;-56
2021/07/14 14:26:26;;;;;;;;;;;16.50;99.90;;;;;;4985362;28;19990;-58